Дата Пункты Температура Давл., мм. Влажн., % Ветер Погодные явления
Воздуха Воды Направл. Скорость
19.04.18 06:00 Одесса 21.0 13.0 756 33 С-З 4 18 ЧАСОВ
19.04.18 03:00 Одесса 21.0 13.0 757 36 С-З 6 15 ЧАСОВ
19.04.18 12:00 Одесса 18.0 13.0 759 46 С-З 4 12 ЧАСОВ
19.04.18 09:00 Одесса 15.0 13.0 761 57 С-З 3 09 ЧАСОВ
19.04.18 06:00 Одесса 11.0 13.0 762 66 З 3 06 ЧАСОВ
19.04.18 03:00 Одесса 13.0 13.0 762 60 З 3 03 ЧАСА
18.04.18 09:00 Одесса 17.0 13.0 763 59 З 2 21 ЧАС
18.04.18 06:00 Одесса 20.0 13.0 763 36 С 4 18 ЧАСОВ
18.04.18 03:00 Одесса 20.0 13.0 763 58 С-З 4 15 ЧАСОВ
18.04.18 12:00 Одесса 20.0 12.0 764 54 С 3 12 ЧАСОВ
18.04.18 09:00 Одесса 17.0 12.0 764 46 З 1 09 ЧАСОВ
18.04.18 06:00 Одесса 10.0 13.0 763 71 З 2 06 ЧАСОВ
18.04.18 03:00 Одесса 11.0 13.0 763 67 З 1 03 ЧАСА
17.04.18 09:00 Одесса 13.0 13.0 763 54 Ю-З 1 21 ЧАС
17.04.18 06:00 Одесса 13.0 11.0 762 64 Ю 3 18 ЧАСОВ
17.04.18 03:00 Одесса 14.0 11.0 763 66 Ю 5 15 ЧАСОВ
17.04.18 12:00 Одесса 14.0 9.0 763 65 Ю 4 12 ЧАСОВ
17.04.18 09:00 Одесса 11.0 9.0 763 84 Ю-В 2 09 ЧАСОВ
17.04.18 06:00 Одесса 9.0 10.0 762 88 С 0 06 ЧАСОВ
17.04.18 03:00 Одесса 9.0 10.0 762 85 С 0 03 ЧАСА
Количество строк
1 2 3 4 5 6 7 8 9 10
Page 3 of 354